Time;durP1;ratioP1;P1;durP2;ratioP2;P2;SDS_P1;SDS_P2;PMS_P1;PMS_P2;Temp;Humidity;BMP_temperature;BMP_pressure;BME280_temperature;BME280_humidity;BME280_pressure;Samples;Min_cycle;Max_cycle;Signal;HPM_P1;HPM_P2
2023/12/20 00:00:57;;;;;;;9.60;8.80;;;11.20;99.90;;;;;;5075036;28;20494;-65
2023/12/20 00:03:23;;;;;;;10.00;9.10;;;11.20;99.90;;;;;;5086198;28;20265;-65
2023/12/20 00:05:49;;;;;;;9.90;9.00;;;11.20;99.90;;;;;;5092058;28;20220;-65
2023/12/20 00:08:15;;;;;;;10.37;9.43;;;11.20;99.90;;;;;;5089711;28;20852;-65
2023/12/20 00:10:41;;;;;;;9.07;8.27;;;11.20;99.90;;;;;;5090906;28;20430;-65
2023/12/20 00:13:07;;;;;;;8.00;7.30;;;11.30;99.90;;;;;;5082154;28;20435;-65
2023/12/20 00:15:33;;;;;;;7.90;7.30;;;11.30;99.90;;;;;;5090939;28;20212;-65
2023/12/20 00:18:00;;;;;;;7.63;7.03;;;11.20;99.90;;;;;;5090954;28;20426;-65
2023/12/20 00:20:26;;;;;;;7.10;6.50;;;11.20;99.90;;;;;;5090873;28;20926;-66
2023/12/20 00:22:53;;;;;;;7.80;7.13;;;11.20;99.90;;;;;;5083746;28;20420;-65
2023/12/20 00:25:19;;;;;;;8.10;7.40;;;11.10;99.90;;;;;;5087273;28;20787;-66
2023/12/20 00:27:45;;;;;;;9.17;8.20;;;11.10;99.90;;;;;;5074547;28;20450;-66
2023/12/20 00:30:11;;;;;;;8.67;7.80;;;11.10;99.90;;;;;;5091852;28;20195;-65
2023/12/20 00:32:36;;;;;;;8.43;7.73;;;11.10;99.90;;;;;;5085753;28;20532;-65
2023/12/20 00:35:02;;;;;;;8.60;7.80;;;11.10;99.90;;;;;;5087778;28;20451;-66
2023/12/20 00:37:28;;;;;;;8.10;7.40;;;11.10;99.90;;;;;;5093082;28;20210;-66
2023/12/20 00:39:54;;;;;;;9.03;8.23;;;11.00;99.90;;;;;;5109477;28;20410;-66
2023/12/20 00:42:19;;;;;;;8.33;7.53;;;11.10;99.90;;;;;;5092031;28;20182;-66
2023/12/20 00:44:45;;;;;;;8.10;7.40;;;11.00;99.90;;;;;;5076119;28;20536;-65
2023/12/20 00:47:11;;;;;;;8.90;8.20;;;11.10;99.90;;;;;;5082990;28;20660;-65
2023/12/20 00:49:37;;;;;;;11.07;9.43;;;11.10;99.90;;;;;;5084638;28;20428;-66
2023/12/20 00:52:03;;;;;;;9.80;9.00;;;11.10;99.90;;;;;;5076786;28;20183;-65
2023/12/20 00:54:30;;;;;;;10.50;9.50;;;11.00;99.90;;;;;;5090588;28;20176;-66
2023/12/20 00:56:56;;;;;;;9.57;8.50;;;11.00;99.90;;;;;;5074997;28;20182;-65
2023/12/20 00:59:22;;;;;;;9.93;8.93;;;11.00;99.90;;;;;;5075821;28;20414;-66
2023/12/20 01:01:47;;;;;;;10.17;8.53;;;10.90;99.90;;;;;;5086048;28;20652;-65
2023/12/20 01:04:13;;;;;;;9.20;8.23;;;10.90;99.90;;;;;;5081864;28;20581;-65
2023/12/20 01:06:39;;;;;;;10.17;9.07;;;10.80;99.90;;;;;;5082720;28;20200;-65
2023/12/20 01:09:05;;;;;;;10.40;8.70;;;10.80;99.90;;;;;;5079418;28;20637;-65
2023/12/20 01:11:30;;;;;;;10.13;7.80;;;10.80;99.90;;;;;;5085200;28;20169;-65
2023/12/20 01:13:56;;;;;;;9.90;8.70;;;10.70;99.90;;;;;;5088994;28;20187;-63
2023/12/20 01:16:22;;;;;;;8.33;7.10;;;10.70;99.90;;;;;;5089877;28;20177;-65
2023/12/20 01:18:47;;;;;;;11.20;8.80;;;10.70;99.90;;;;;;5083388;28;20188;-65
2023/12/20 01:21:13;;;;;;;9.20;8.30;;;10.70;99.90;;;;;;5083983;28;20173;-64
2023/12/20 01:23:39;;;;;;;7.93;6.90;;;10.70;99.90;;;;;;5088856;28;20187;-65
2023/12/20 01:26:05;;;;;;;8.70;7.67;;;10.70;99.90;;;;;;5072987;28;20181;-65
2023/12/20 01:28:31;;;;;;;7.97;7.17;;;10.60;99.90;;;;;;5069920;28;20207;-65
2023/12/20 01:30:57;;;;;;;7.50;6.90;;;10.70;99.90;;;;;;5080384;28;20419;-65
2023/12/20 01:33:23;;;;;;;9.47;7.20;;;10.80;99.90;;;;;;5083458;28;20759;-65
2023/12/20 01:35:49;;;;;;;10.70;8.13;;;10.80;99.90;;;;;;5096600;28;20431;-65
2023/12/20 01:38:18;;;;;;;8.77;7.93;;;10.70;99.90;;;;;;5073156;28;20191;-65
2023/12/20 01:40:44;;;;;;;11.27;7.00;;;10.70;99.90;;;;;;5089444;28;20691;-66
2023/12/20 01:43:12;;;;;;;7.00;6.30;;;10.80;99.90;;;;;;5090976;28;20449;-65
2023/12/20 01:45:38;;;;;;;8.40;7.00;;;10.80;99.90;;;;;;5079531;28;20434;-65
2023/12/20 01:48:05;;;;;;;9.63;7.20;;;10.80;99.90;;;;;;5089123;28;20453;-65
2023/12/20 01:50:31;;;;;;;8.50;6.67;;;10.80;99.90;;;;;;5088580;28;20770;-66
2023/12/20 01:53:02;;;;;;;7.90;6.20;;;10.70;99.90;;;;;;5084679;28;20476;-66
2023/12/20 01:55:31;;;;;;;13.20;7.10;;;10.70;99.90;;;;;;5086017;28;20435;-66
2023/12/20 01:57:58;;;;;;;8.57;6.90;;;10.70;99.90;;;;;;5075137;28;20433;-66
2023/12/20 02:00:26;;;;;;;7.70;6.93;;;10.80;99.90;;;;;;5058008;28;20751;-65
2023/12/20 02:02:54;;;;;;;7.77;6.30;;;10.80;99.90;;;;;;5080540;28;20423;-66
2023/12/20 02:05:21;;;;;;;7.97;6.37;;;10.80;99.90;;;;;;5090237;28;20465;-65
2023/12/20 02:07:47;;;;;;;9.43;6.30;;;10.80;99.90;;;;;;5091551;28;20503;-65
2023/12/20 02:10:13;;;;;;;7.10;6.10;;;10.70;99.90;;;;;;5092355;28;20427;-66
2023/12/20 02:12:38;;;;;;;8.50;5.80;;;10.60;99.90;;;;;;5087735;28;20176;-66
2023/12/20 02:15:05;;;;;;;7.97;5.57;;;10.60;99.90;;;;;;5094064;28;20234;-65
2023/12/20 02:17:32;;;;;;;11.60;6.07;;;10.60;99.90;;;;;;5091972;28;20179;-65
2023/12/20 02:19:57;;;;;;;6.03;5.40;;;10.60;99.90;;;;;;5093044;28;20423;-65
2023/12/20 02:22:23;;;;;;;6.57;5.93;;;10.70;99.90;;;;;;5087146;28;20440;-65
2023/12/20 02:24:49;;;;;;;9.13;5.47;;;10.60;99.90;;;;;;5091368;28;20254;-66
2023/12/20 02:27:17;;;;;;;9.67;5.20;;;10.50;99.90;;;;;;5106610;28;20258;-65
2023/12/20 02:29:43;;;;;;;4.60;4.20;;;10.50;99.90;;;;;;5092442;28;20183;-66
2023/12/20 02:32:08;;;;;;;5.37;4.80;;;10.50;99.90;;;;;;5085929;28;20426;-65
2023/12/20 02:34:34;;;;;;;6.83;5.00;;;10.50;99.90;;;;;;5074014;28;20622;-65
2023/12/20 02:37:00;;;;;;;5.20;4.80;;;10.50;99.90;;;;;;5080559;28;20656;-65
2023/12/20 02:39:26;;;;;;;5.47;4.97;;;10.50;99.90;;;;;;5086939;28;20181;-66
2023/12/20 02:41:52;;;;;;;6.37;5.60;;;10.50;99.90;;;;;;5081558;28;20229;-67
2023/12/20 02:44:18;;;;;;;7.93;7.00;;;10.50;99.90;;;;;;5073852;28;20423;-67
2023/12/20 02:46:43;;;;;;;9.23;6.77;;;10.40;99.90;;;;;;5124139;27;20211;-67
2023/12/20 02:49:09;;;;;;;12.80;7.40;;;10.30;99.90;;;;;;5092302;28;20719;-66
2023/12/20 02:51:38;;;;;;;9.03;6.10;;;10.40;99.90;;;;;;5081548;28;20181;-67
2023/12/20 02:54:03;;;;;;;10.60;7.13;;;10.40;99.90;;;;;;5087097;28;20648;-66
2023/12/20 02:56:29;;;;;;;9.57;8.33;;;10.30;99.90;;;;;;5077627;28;20466;-67
2023/12/20 02:58:55;;;;;;;10.63;7.37;;;10.20;99.90;;;;;;5094023;28;20475;-67
2023/12/20 03:01:21;;;;;;;8.33;7.37;;;10.20;99.90;;;;;;5077375;28;20577;-66
2023/12/20 03:03:46;;;;;;;8.43;7.63;;;10.20;99.90;;;;;;5090625;28;20183;-67
2023/12/20 03:06:19;;;;;;;10.93;7.50;;;10.20;99.90;;;;;;5085787;28;20540;-67
2023/12/20 03:08:45;;;;;;;8.70;7.20;;;10.20;99.90;;;;;;5080471;28;20196;-66
2023/12/20 03:11:11;;;;;;;8.60;7.50;;;10.20;99.90;;;;;;5092282;28;20750;-66
2023/12/20 03:13:37;;;;;;;12.20;7.10;;;10.20;99.90;;;;;;5081331;28;20480;-66
2023/12/20 03:16:12;;;;;;;8.30;7.40;;;10.20;99.90;;;;;;5090781;28;21034;-66
2023/12/20 03:18:38;;;;;;;7.03;6.33;;;10.10;99.90;;;;;;5089140;28;20175;-66
2023/12/20 03:21:05;;;;;;;10.43;7.83;;;10.10;99.90;;;;;;5074045;28;20401;-66
2023/12/20 03:23:32;;;;;;;9.07;6.90;;;10.10;99.90;;;;;;5092333;28;20519;-67
2023/12/20 03:25:58;;;;;;;7.73;5.43;;;10.10;99.90;;;;;;5086331;28;20505;-66
2023/12/20 03:28:25;;;;;;;10.47;6.53;;;10.10;99.90;;;;;;5082357;28;20480;-66
2023/12/20 03:30:50;;;;;;;7.67;6.33;;;10.00;99.90;;;;;;5079560;28;20519;-66
2023/12/20 03:33:16;;;;;;;7.00;6.30;;;10.10;99.90;;;;;;5090698;28;20924;-67
2023/12/20 03:35:42;;;;;;;10.60;5.93;;;10.00;99.90;;;;;;5089025;28;20205;-66
2023/12/20 03:38:08;;;;;;;7.00;6.23;;;9.80;99.90;;;;;;5086057;28;20178;-66
2023/12/20 03:40:34;;;;;;;10.53;5.87;;;9.70;99.90;;;;;;5073402;28;20175;-67
2023/12/20 03:42:59;;;;;;;9.90;5.70;;;9.70;99.90;;;;;;5092519;28;20477;-66
2023/12/20 03:45:25;;;;;;;11.27;6.00;;;9.70;99.90;;;;;;5086328;28;20181;-66
2023/12/20 03:47:55;;;;;;;9.57;5.93;;;9.70;99.90;;;;;;5092092;28;20201;-67
2023/12/20 03:50:23;;;;;;;8.00;5.57;;;9.60;99.90;;;;;;5091729;28;20188;-66
2023/12/20 03:52:49;;;;;;;6.80;5.87;;;9.60;99.90;;;;;;5087871;28;20461;-66
2023/12/20 03:55:15;;;;;;;6.83;4.97;;;9.70;99.90;;;;;;5078504;28;20460;-65
2023/12/20 03:57:41;;;;;;;9.20;5.40;;;9.60;99.90;;;;;;5080963;28;20263;-66
2023/12/20 04:00:10;;;;;;;8.60;5.30;;;9.60;99.90;;;;;;5086633;28;20527;-66
2023/12/20 04:02:37;;;;;;;8.17;5.50;;;9.60;99.90;;;;;;5091121;27;20240;-67
2023/12/20 04:05:03;;;;;;;9.30;5.90;;;9.60;99.90;;;;;;5083215;28;20850;-66
2023/12/20 04:07:29;;;;;;;10.77;6.50;;;9.50;99.90;;;;;;5091140;28;20772;-66
2023/12/20 04:09:55;;;;;;;6.90;5.97;;;9.60;99.90;;;;;;5085070;28;20428;-66
2023/12/20 04:12:21;;;;;;;9.40;6.17;;;9.60;99.90;;;;;;5092052;28;20866;-66
2023/12/20 04:14:46;;;;;;;11.03;6.63;;;9.60;99.90;;;;;;5089440;28;20573;-66
2023/12/20 04:17:12;;;;;;;7.73;6.80;;;9.60;99.90;;;;;;5092309;28;20185;-66
2023/12/20 04:19:38;;;;;;;10.20;7.73;;;9.60;99.90;;;;;;5091918;28;20207;-66
2023/12/20 04:22:03;;;;;;;11.90;7.60;;;9.60;99.90;;;;;;5075125;28;20176;-66
2023/12/20 04:24:29;;;;;;;10.27;7.63;;;9.60;99.90;;;;;;5075011;28;20237;-66
2023/12/20 04:26:55;;;;;;;13.10;7.87;;;9.60;99.90;;;;;;5083733;28;20234;-66
2023/12/20 04:29:20;;;;;;;10.80;7.97;;;9.60;99.90;;;;;;5089024;28;20181;-66
2023/12/20 04:31:46;;;;;;;13.03;8.10;;;9.60;99.90;;;;;;5080997;28;20262;-66
2023/12/20 04:34:12;;;;;;;10.43;7.73;;;9.70;99.90;;;;;;5079065;28;20259;-66
2023/12/20 04:36:38;;;;;;;13.30;8.03;;;9.70;99.90;;;;;;5091426;28;20268;-67
2023/12/20 04:39:03;;;;;;;12.00;8.60;;;9.70;99.90;;;;;;5084822;28;20213;-66
2023/12/20 04:41:29;;;;;;;14.57;8.80;;;9.70;99.90;;;;;;5072168;28;20187;-66
2023/12/20 04:43:55;;;;;;;16.30;8.90;;;9.70;99.90;;;;;;5072451;28;20194;-64
2023/12/20 04:46:21;;;;;;;10.73;8.20;;;9.80;99.90;;;;;;5072291;28;20425;-65
2023/12/20 04:48:46;;;;;;;10.97;8.97;;;9.70;99.90;;;;;;5072764;28;20249;-64
2023/12/20 04:51:12;;;;;;;15.57;9.97;;;9.70;99.90;;;;;;5086457;28;20263;-64
2023/12/20 04:53:38;;;;;;;10.20;8.30;;;9.70;99.90;;;;;;5085675;28;20176;-66
2023/12/20 04:56:04;;;;;;;14.37;8.83;;;9.70;99.90;;;;;;5071618;28;20531;-64
2023/12/20 04:58:29;;;;;;;12.80;8.70;;;9.70;99.90;;;;;;5072258;28;20187;-65
2023/12/20 05:00:55;;;;;;;10.40;8.27;;;9.60;99.90;;;;;;5079802;28;21064;-64
2023/12/20 05:03:21;;;;;;;11.33;7.93;;;9.60;99.90;;;;;;5070772;28;20175;-64
2023/12/20 05:05:47;;;;;;;9.97;8.23;;;9.50;99.90;;;;;;5087866;28;20181;-64
2023/12/20 05:08:12;;;;;;;12.17;7.80;;;9.50;99.90;;;;;;5091748;28;20325;-64
2023/12/20 05:10:40;;;;;;;10.40;8.23;;;9.50;99.90;;;;;;5087384;28;20267;-66
2023/12/20 05:13:06;;;;;;;19.70;9.17;;;9.40;99.90;;;;;;5081954;28;20180;-64
2023/12/20 05:15:31;;;;;;;13.70;8.97;;;9.30;99.90;;;;;;5090036;28;20545;-64
2023/12/20 05:17:57;;;;;;;12.80;8.23;;;9.30;99.90;;;;;;5071289;28;20428;-64
2023/12/20 05:20:23;;;;;;;17.50;8.10;;;9.30;99.90;;;;;;5072097;28;20233;-64
2023/12/20 05:22:49;;;;;;;15.60;8.67;;;9.30;99.90;;;;;;5071037;28;20173;-66
2023/12/20 05:25:15;;;;;;;10.10;8.23;;;9.30;99.90;;;;;;5091472;28;20427;-66
2023/12/20 05:27:40;;;;;;;12.07;8.37;;;9.20;99.90;;;;;;5080399;28;20447;-68
2023/12/20 05:30:07;;;;;;;11.23;8.40;;;9.20;99.90;;;;;;5092178;28;20176;-65
2023/12/20 05:32:32;;;;;;;10.20;8.07;;;9.20;99.90;;;;;;5094877;28;20178;-65
2023/12/20 05:34:58;;;;;;;11.77;8.57;;;9.20;99.90;;;;;;5090927;28;20925;-65
2023/12/20 05:37:24;;;;;;;14.00;8.57;;;9.20;99.90;;;;;;5075580;28;20671;-66
2023/12/20 05:39:49;;;;;;;15.70;9.53;;;9.20;99.90;;;;;;5084667;28;20257;-64
2023/12/20 05:42:15;;;;;;;13.40;8.70;;;9.20;99.90;;;;;;5079673;28;20181;-65
2023/12/20 05:44:41;;;;;;;16.97;9.03;;;9.20;99.90;;;;;;5073251;28;20221;-68
2023/12/20 05:47:06;;;;;;;10.70;8.23;;;9.20;99.90;;;;;;5087637;28;20254;-65
2023/12/20 05:49:32;;;;;;;10.70;8.33;;;9.20;99.90;;;;;;5079397;28;20657;-65
2023/12/20 05:51:58;;;;;;;12.63;9.30;;;9.30;99.90;;;;;;5101308;28;20279;-65
2023/12/20 05:54:24;;;;;;;11.17;9.30;;;9.30;99.90;;;;;;5084436;28;20185;-65
2023/12/20 05:56:50;;;;;;;13.67;8.90;;;9.30;99.90;;;;;;5094273;28;20185;-65
2023/12/20 05:59:16;;;;;;;15.77;7.80;;;9.30;99.90;;;;;;5105586;28;20193;-65
2023/12/20 06:01:42;;;;;;;10.43;9.30;;;9.30;99.90;;;;;;5095490;28;20420;-68
2023/12/20 06:04:07;;;;;;;13.13;8.57;;;9.30;99.90;;;;;;5093967;28;20165;-65
2023/12/20 06:06:33;;;;;;;15.20;7.93;;;9.30;99.90;;;;;;5107785;28;20187;-65
2023/12/20 06:08:59;;;;;;;11.07;6.97;;;9.30;99.90;;;;;;5085756;28;20256;-66
2023/12/20 06:11:26;;;;;;;10.17;7.20;;;9.30;99.90;;;;;;5077694;28;20657;-65
2023/12/20 06:13:53;;;;;;;12.70;7.00;;;9.30;99.90;;;;;;5093400;28;20216;-63
2023/12/20 06:16:19;;;;;;;10.90;7.07;;;9.20;99.90;;;;;;5092226;28;20426;-65
2023/12/20 06:18:44;;;;;;;11.80;6.90;;;9.20;99.90;;;;;;5075334;28;20423;-69
2023/12/20 06:21:12;;;;;;;10.80;7.70;;;9.20;99.90;;;;;;5077842;28;20246;-66
2023/12/20 06:23:38;;;;;;;14.77;8.43;;;9.30;99.90;;;;;;5074655;28;20505;-67
2023/12/20 06:26:04;;;;;;;13.03;7.60;;;9.30;99.90;;;;;;5075002;28;20482;-66
2023/12/20 06:28:30;;;;;;;12.27;8.20;;;9.30;99.90;;;;;;5074560;28;20515;-67
2023/12/20 06:30:56;;;;;;;12.73;6.73;;;9.30;99.90;;;;;;5084083;28;20503;-67
2023/12/20 06:33:22;;;;;;;11.73;7.10;;;9.30;99.90;;;;;;5093911;28;20188;-67
2023/12/20 06:35:49;;;;;;;11.17;6.77;;;9.20;99.90;;;;;;5085236;28;20420;-67
2023/12/20 06:38:15;;;;;;;13.40;7.30;;;9.20;99.90;;;;;;5080959;28;20418;-67
2023/12/20 06:40:40;;;;;;;8.53;6.30;;;9.30;99.90;;;;;;5076663;28;20963;-67
2023/12/20 06:43:06;;;;;;;16.93;6.60;;;9.30;99.90;;;;;;5072152;28;20226;-67
2023/12/20 06:45:32;;;;;;;16.17;8.20;;;9.30;99.90;;;;;;5082290;28;20254;-67
2023/12/20 06:47:58;;;;;;;13.43;6.37;;;9.30;99.90;;;;;;5092868;28;20564;-67
2023/12/20 06:50:24;;;;;;;9.97;6.67;;;9.20;99.90;;;;;;5078367;28;20457;-67
2023/12/20 06:52:50;;;;;;;14.00;7.27;;;9.20;99.90;;;;;;5078816;28;20688;-67
2023/12/20 06:55:17;;;;;;;12.43;7.07;;;9.20;99.90;;;;;;5082621;28;20422;-67
2023/12/20 06:57:43;;;;;;;10.03;7.10;;;9.20;99.90;;;;;;5075783;28;20644;-67
2023/12/20 07:00:10;;;;;;;12.97;7.27;;;9.10;99.90;;;;;;5085774;28;20516;-67
2023/12/20 07:02:36;;;;;;;11.93;7.03;;;9.20;99.90;;;;;;5085013;28;20426;-67
2023/12/20 07:05:02;;;;;;;11.37;6.57;;;9.20;99.90;;;;;;5082896;28;20659;-67
2023/12/20 07:07:28;;;;;;;11.67;7.10;;;9.20;99.90;;;;;;5092916;28;20564;-67
2023/12/20 07:09:53;;;;;;;11.43;6.20;;;9.20;99.90;;;;;;5073223;28;20877;-67
2023/12/20 07:12:19;;;;;;;15.17;6.33;;;9.20;99.90;;;;;;5073832;28;20174;-67
2023/12/20 07:14:46;;;;;;;10.20;6.50;;;9.20;99.90;;;;;;5087678;28;20225;-67
2023/12/20 07:17:13;;;;;;;14.07;6.97;;;9.20;99.90;;;;;;5111192;27;20267;-67
2023/12/20 07:19:40;;;;;;;13.40;6.80;;;9.20;99.90;;;;;;5091421;28;20497;-67
2023/12/20 07:22:08;;;;;;;8.87;6.40;;;9.20;99.90;;;;;;5113896;28;20418;-67
2023/12/20 07:24:34;;;;;;;9.40;6.53;;;9.30;99.90;;;;;;5106216;28;20418;-67
2023/12/20 07:27:00;;;;;;;11.90;6.83;;;9.20;99.90;;;;;;5092644;28;20512;-67
2023/12/20 07:29:26;;;;;;;12.50;6.10;;;9.10;99.90;;;;;;5092854;28;20180;-67
2023/12/20 07:31:55;;;;;;;10.60;6.90;;;9.10;99.90;;;;;;5084768;28;20423;-67
2023/12/20 07:34:21;;;;;;;9.30;6.73;;;9.10;99.90;;;;;;5093245;28;20414;-67
2023/12/20 07:36:47;;;;;;;6.93;5.93;;;9.00;99.90;;;;;;5092143;28;20422;-67
2023/12/20 07:39:14;;;;;;;8.13;6.40;;;9.00;99.90;;;;;;5102309;28;20183;-67
2023/12/20 07:41:40;;;;;;;10.33;5.97;;;9.00;99.90;;;;;;5108306;28;20482;-67
2023/12/20 07:44:07;;;;;;;10.07;5.77;;;9.00;99.90;;;;;;5092792;28;20494;-67
2023/12/20 07:46:33;;;;;;;12.73;8.10;;;9.00;99.90;;;;;;5092652;28;20184;-65
2023/12/20 07:48:59;;;;;;;9.33;6.43;;;9.10;99.90;;;;;;5093471;28;20770;-65
2023/12/20 07:51:24;;;;;;;11.67;7.60;;;9.60;99.90;;;;;;5093857;28;20199;-65
2023/12/20 07:53:51;;;;;;;9.80;6.67;;;10.10;99.90;;;;;;5092578;28;20172;-66
2023/12/20 07:56:18;;;;;;;8.77;6.47;;;10.60;99.90;;;;;;5092520;28;20240;-65
2023/12/20 07:58:44;;;;;;;11.03;6.50;;;11.20;99.90;;;;;;5090119;28;20415;-65
2023/12/20 08:01:11;;;;;;;8.20;7.00;;;11.70;99.90;;;;;;5091433;28;20420;-65
2023/12/20 08:03:37;;;;;;;8.27;5.93;;;12.10;99.90;;;;;;5092390;28;20780;-65
2023/12/20 08:06:03;;;;;;;11.97;6.30;;;12.50;99.90;;;;;;5087321;28;20475;-65
2023/12/20 08:08:29;;;;;;;9.73;6.73;;;12.60;99.90;;;;;;5093915;28;20490;-64
2023/12/20 08:10:57;;;;;;;8.07;6.47;;;12.70;99.90;;;;;;5092264;28;20432;-65
2023/12/20 08:13:25;;;;;;;11.60;6.50;;;12.90;99.90;;;;;;5089145;28;20201;-64
2023/12/20 08:15:52;;;;;;;10.27;7.10;;;13.00;99.90;;;;;;5091695;28;20449;-64
2023/12/20 08:18:18;;;;;;;8.93;8.03;;;13.10;99.90;;;;;;5093122;28;20420;-64
2023/12/20 08:20:44;;;;;;;12.70;7.17;;;13.20;99.90;;;;;;5101716;28;20432;-64
2023/12/20 08:23:09;;;;;;;14.17;8.37;;;13.10;99.90;;;;;;5107882;28;20405;-65
2023/12/20 08:25:35;;;;;;;10.37;7.37;;;13.10;99.90;;;;;;5080116;28;20187;-65
2023/12/20 08:28:02;;;;;;;13.90;9.93;;;13.30;99.90;;;;;;5088759;28;20508;-65
2023/12/20 08:30:29;;;;;;;12.23;7.23;;;13.30;99.90;;;;;;5092669;28;20182;-64
2023/12/20 08:32:55;;;;;;;14.97;7.40;;;13.40;99.90;;;;;;5072875;28;20426;-65
2023/12/20 08:35:21;;;;;;;11.20;6.73;;;13.60;99.90;;;;;;5092252;28;20432;-65
2023/12/20 08:37:46;;;;;;;10.03;6.43;;;13.70;99.90;;;;;;5090824;28;20428;-65
2023/12/20 08:40:13;;;;;;;16.23;6.37;;;13.80;99.90;;;;;;5090664;28;20183;-65
2023/12/20 08:42:39;;;;;;;14.60;7.00;;;13.90;99.90;;;;;;5082421;28;20169;-64
2023/12/20 08:45:06;;;;;;;10.70;7.30;;;13.80;99.90;;;;;;5072099;28;20430;-65
2023/12/20 08:47:31;;;;;;;11.57;7.50;;;13.70;99.90;;;;;;5085138;28;20537;-65
2023/12/20 08:49:59;;;;;;;8.70;6.63;;;13.70;99.90;;;;;;5077139;28;20515;-65
2023/12/20 08:52:27;;;;;;;13.27;7.50;;;13.60;99.90;;;;;;5081438;28;20721;-64
2023/12/20 08:54:53;;;;;;;9.03;6.97;;;13.60;99.90;;;;;;5087742;28;20440;-63
2023/12/20 08:57:26;;;;;;;11.10;6.73;;;13.30;99.90;;;;;;5089994;28;20785;-62
2023/12/20 08:59:52;;;;;;;10.43;7.57;;;12.70;99.90;;;;;;5084867;28;20427;-68
2023/12/20 09:02:17;;;;;;;8.43;6.80;;;12.20;99.90;;;;;;5076258;28;20505;-62
2023/12/20 09:04:43;;;;;;;11.83;6.63;;;11.90;99.90;;;;;;5087659;28;20418;-62
2023/12/20 09:07:31;;;;;;;7.97;6.80;;;11.60;99.90;;;;;;5089568;28;20639;-62
2023/12/20 09:09:58;;;;;;;12.10;6.60;;;11.30;99.90;;;;;;5088025;28;20180;-61
2023/12/20 09:12:23;;;;;;;9.80;6.70;;;11.00;99.90;;;;;;5085672;28;20841;-63
2023/12/20 09:14:51;;;;;;;9.00;7.10;;;10.80;99.90;;;;;;5095065;28;20485;-64
2023/12/20 09:17:17;;;;;;;9.33;7.17;;;10.60;99.90;;;;;;5091324;28;20660;-64
2023/12/20 09:19:44;;;;;;;143.03;99.20;;;10.40;99.90;;;;;;5087691;28;20430;-64
2023/12/20 09:22:10;;;;;;;49.57;31.43;;;10.30;99.90;;;;;;5076858;28;20454;-63
2023/12/20 09:24:36;;;;;;;10.80;7.33;;;10.20;99.90;;;;;;5080895;28;20423;-62
2023/12/20 09:27:02;;;;;;;13.00;7.90;;;10.00;99.90;;;;;;5096603;28;20509;-64
2023/12/20 09:29:29;;;;;;;11.90;8.60;;;9.90;99.90;;;;;;5095793;28;20179;-63
2023/12/20 09:31:55;;;;;;;8.60;6.77;;;9.90;99.90;;;;;;5095065;28;20884;-68
2023/12/20 09:34:21;;;;;;;14.43;6.53;;;9.80;99.90;;;;;;5095934;28;20407;-63
2023/12/20 09:36:47;;;;;;;9.57;6.43;;;9.80;99.90;;;;;;5096185;28;20400;-63
2023/12/20 09:39:21;;;;;;;8.57;6.40;;;9.80;99.90;;;;;;5095598;28;20746;-62
2023/12/20 09:42:03;;;;;;;10.90;6.23;;;9.80;99.90;;;;;;5096143;28;20171;-63
2023/12/20 09:44:29;;;;;;;12.63;6.50;;;9.70;99.90;;;;;;5096234;28;20428;-63
2023/12/20 09:46:56;;;;;;;6.90;5.87;;;9.70;99.90;;;;;;5110644;28;20682;-63
2023/12/20 09:49:22;;;;;;;9.07;5.87;;;9.60;99.90;;;;;;5116104;28;20446;-62
2023/12/20 09:51:51;;;;;;;7.00;5.50;;;9.60;99.90;;;;;;5116015;28;20485;-63
2023/12/20 09:54:18;;;;;;;8.10;5.30;;;9.60;99.90;;;;;;5115923;28;20550;-64
2023/12/20 09:56:44;;;;;;;6.77;5.27;;;9.60;99.90;;;;;;5116104;28;20415;-62
2023/12/20 09:59:10;;;;;;;9.13;5.30;;;9.60;99.90;;;;;;5115519;28;20761;-62
2023/12/20 10:01:39;;;;;;;8.03;6.63;;;9.50;99.90;;;;;;5115806;28;20922;-63
2023/12/20 10:04:12;;;;;;;9.00;6.00;;;9.50;99.90;;;;;;5115417;28;20398;-62
2023/12/20 10:06:40;;;;;;;10.57;6.47;;;9.50;99.90;;;;;;5115944;28;20407;-63
2023/12/20 10:09:06;;;;;;;12.77;6.57;;;9.50;99.90;;;;;;5108924;28;20797;-63
2023/12/20 10:11:32;;;;;;;8.80;6.30;;;9.50;99.90;;;;;;5115761;28;20403;-63
2023/12/20 10:14:01;;;;;;;14.20;7.33;;;9.50;99.90;;;;;;5114680;28;20191;-63
2023/12/20 10:16:27;;;;;;;10.87;7.17;;;9.50;99.90;;;;;;5115827;28;20450;-62
2023/12/20 10:18:56;;;;;;;10.70;6.70;;;9.50;99.90;;;;;;5115704;28;20395;-63
2023/12/20 10:21:26;;;;;;;7.87;5.70;;;9.50;99.90;;;;;;5115627;28;20487;-63
2023/12/20 10:23:52;;;;;;;10.10;5.80;;;9.50;99.90;;;;;;5115452;28;20780;-64
2023/12/20 10:26:25;;;;;;;6.43;5.43;;;9.50;99.90;;;;;;5112272;28;21043;-64
2023/12/20 10:29:04;;;;;;;7.80;5.00;;;9.50;99.90;;;;;;5115182;28;20448;-63
2023/12/20 10:31:32;;;;;;;10.23;6.57;;;9.60;99.90;;;;;;5115255;28;20410;-66
2023/12/20 10:33:58;;;;;;;14.93;7.90;;;9.50;99.90;;;;;;5113387;28;20400;-68
2023/12/20 10:36:26;;;;;;;13.83;9.67;;;10.10;99.90;;;;;;5101545;28;21053;-65
2023/12/20 10:38:54;;;;;;;10.70;7.37;;;10.60;99.90;;;;;;5094488;28;20469;-66
2023/12/20 10:41:24;;;;;;;10.40;6.60;;;11.10;99.90;;;;;;5093295;28;20406;-66
2023/12/20 10:44:01;;;;;;;9.90;6.07;;;11.50;99.90;;;;;;5094447;28;20395;-66
2023/12/20 10:46:30;;;;;;;10.40;6.23;;;11.80;99.90;;;;;;5116496;27;20523;-66
2023/12/20 10:49:01;;;;;;;13.13;5.43;;;12.20;99.90;;;;;;5093907;28;20545;-68
2023/12/20 10:51:29;;;;;;;7.57;5.97;;;12.50;99.90;;;;;;5093796;28;20407;-66
2023/12/20 10:53:55;;;;;;;8.23;5.70;;;12.70;99.90;;;;;;5094203;28;20414;-66
2023/12/20 10:56:23;;;;;;;7.10;5.10;;;12.90;99.90;;;;;;5092931;28;20413;-66
2023/12/20 10:58:49;;;;;;;10.83;5.47;;;12.90;99.90;;;;;;5093840;28;20497;-66
2023/12/20 11:01:17;;;;;;;7.00;6.07;;;13.00;99.90;;;;;;5093026;28;20911;-66
2023/12/20 11:03:53;;;;;;;5.93;5.40;;;13.10;99.90;;;;;;5093830;28;20402;-66
2023/12/20 11:06:22;;;;;;;9.60;6.30;;;13.20;99.90;;;;;;5091554;28;20462;-66
2023/12/20 11:09:20;;;;;;;10.27;5.57;;;13.20;99.90;;;;;;5093542;28;20493;-66
2023/12/20 11:12:12;;;;;;;9.80;6.40;;;13.30;99.90;;;;;;5036896;28;20439;-65
2023/12/20 11:14:38;;;;;;;9.83;5.73;;;13.40;99.90;;;;;;5093239;28;20454;-64
2023/12/20 11:17:08;;;;;;;10.30;6.20;;;13.50;99.90;;;;;;5092647;28;20420;-65
2023/12/20 11:19:37;;;;;;;9.53;6.20;;;13.50;99.90;;;;;;5093600;28;20218;-65
2023/12/20 11:22:05;;;;;;;11.17;7.60;;;13.60;99.90;;;;;;5089512;28;20797;-65
2023/12/20 11:24:32;;;;;;;11.53;7.40;;;13.60;99.90;;;;;;5093328;28;20916;-65
2023/12/20 11:26:59;;;;;;;6.50;5.57;;;13.80;99.90;;;;;;5093073;28;20469;-68
2023/12/20 11:29:39;;;;;;;11.07;6.80;;;13.70;99.90;;;;;;5093727;28;20429;-65
2023/12/20 11:32:23;;;;;;;8.17;6.27;;;13.70;99.90;;;;;;5090238;28;20405;-65
2023/12/20 11:34:51;;;;;;;10.07;6.20;;;13.60;99.90;;;;;;5091125;28;20970;-65
2023/12/20 11:37:19;;;;;;;8.90;6.60;;;13.70;99.90;;;;;;5092302;28;20418;-65
2023/12/20 11:39:45;;;;;;;71.03;49.20;;;13.70;99.90;;;;;;5093334;28;20463;-64
2023/12/20 11:42:11;;;;;;;10.80;8.67;;;13.70;99.90;;;;;;5091248;28;20413;-65
2023/12/20 11:44:37;;;;;;;12.13;6.57;;;13.70;99.90;;;;;;5092272;28;20171;-65
2023/12/20 11:47:03;;;;;;;9.37;7.23;;;13.60;99.90;;;;;;5092280;28;20215;-67
2023/12/20 11:49:30;;;;;;;12.93;7.83;;;13.70;99.90;;;;;;5092763;28;20495;-64
2023/12/20 11:51:56;;;;;;;10.87;7.07;;;13.80;99.90;;;;;;5092934;28;20399;-65
2023/12/20 11:54:22;;;;;;;8.93;7.20;;;13.80;99.90;;;;;;5091985;28;20397;-66
2023/12/20 11:56:48;;;;;;;8.80;6.10;;;13.70;99.90;;;;;;5092634;28;20756;-65
2023/12/20 11:59:15;;;;;;;10.57;6.20;;;13.60;99.90;;;;;;5091614;28;20439;-66
2023/12/20 12:01:48;;;;;;;6.00;5.50;;;13.70;99.90;;;;;;5092905;28;20413;-65
2023/12/20 12:04:15;;;;;;;10.80;6.60;;;13.80;99.90;;;;;;5091828;28;20462;-66
2023/12/20 12:06:41;;;;;;;10.20;7.47;;;13.70;99.90;;;;;;5092129;28;20394;-66
2023/12/20 12:09:07;;;;;;;8.93;6.80;;;13.90;99.90;;;;;;5091289;28;20881;-66
2023/12/20 12:11:33;;;;;;;8.03;5.80;;;13.80;99.90;;;;;;5092459;28;20180;-65
2023/12/20 12:13:59;;;;;;;7.37;5.73;;;13.90;99.90;;;;;;5092285;28;20439;-65
2023/12/20 12:16:25;;;;;;;12.40;7.00;;;13.90;99.90;;;;;;5091297;28;20918;-65
2023/12/20 12:18:58;;;;;;;15.83;8.97;;;13.90;99.90;;;;;;5091423;28;20498;-65
2023/12/20 12:21:25;;;;;;;13.60;6.77;;;14.00;99.90;;;;;;5092995;28;20229;-66
2023/12/20 12:23:51;;;;;;;7.50;5.70;;;14.00;99.90;;;;;;5092222;28;20403;-65
2023/12/20 12:26:16;;;;;;;10.13;6.83;;;14.20;99.90;;;;;;5091016;28;20405;-65
2023/12/20 12:28:43;;;;;;;13.40;7.77;;;14.20;99.90;;;;;;5092291;28;20196;-65
2023/12/20 12:31:17;;;;;;;6.83;5.97;;;14.10;99.90;;;;;;5091549;28;20402;-64
2023/12/20 12:33:44;;;;;;;7.00;5.83;;;14.30;99.90;;;;;;5089360;28;20740;-65
2023/12/20 12:36:12;;;;;;;11.63;6.20;;;14.30;99.90;;;;;;5090303;28;20397;-65
2023/12/20 12:38:37;;;;;;;10.13;5.80;;;14.30;99.90;;;;;;5091545;28;20402;-65
2023/12/20 12:41:05;;;;;;;10.27;6.30;;;14.40;99.90;;;;;;5112606;28;20409;-66
2023/12/20 12:43:31;;;;;;;9.37;5.90;;;14.50;99.90;;;;;;5111261;28;20258;-65